sensor_id;sensor_type;location;lat;lon;timestamp;P1;durP1;ratioP1;P2;durP2;ratioP2
21519;SDS011;10921;53.614;9.882;2022-09-17T00:01:17;56.72;;;32.58;;
21519;SDS011;10921;53.614;9.882;2022-09-17T00:03:53;62.45;;;34.22;;
21519;SDS011;10921;53.614;9.882;2022-09-17T00:06:21;50.58;;;32.53;;
21519;SDS011;10921;53.614;9.882;2022-09-17T00:08:50;50.97;;;31.50;;
21519;SDS011;10921;53.614;9.882;2022-09-17T00:11:19;63.03;;;32.72;;
21519;SDS011;10921;53.614;9.882;2022-09-17T00:13:48;65.38;;;33.15;;
21519;SDS011;10921;53.614;9.882;2022-09-17T00:16:24;60.83;;;32.53;;
21519;SDS011;10921;53.614;9.882;2022-09-17T00:18:53;57.22;;;32.88;;
21519;SDS011;10921;53.614;9.882;2022-09-17T00:21:20;60.17;;;32.55;;
21519;SDS011;10921;53.614;9.882;2022-09-17T00:23:47;49.22;;;31.25;;
21519;SDS011;10921;53.614;9.882;2022-09-17T00:26:14;48.70;;;29.98;;
21519;SDS011;10921;53.614;9.882;2022-09-17T00:28:41;53.33;;;30.85;;
21519;SDS011;10921;53.614;9.882;2022-09-17T00:31:10;55.08;;;31.02;;
21519;SDS011;10921;53.614;9.882;2022-09-17T00:33:37;50.58;;;29.70;;
21519;SDS011;10921;53.614;9.882;2022-09-17T00:36:04;59.80;;;29.65;;
21519;SDS011;10921;53.614;9.882;2022-09-17T00:38:31;48.13;;;29.17;;
21519;SDS011;10921;53.614;9.882;2022-09-17T00:40:58;43.60;;;28.02;;
21519;SDS011;10921;53.614;9.882;2022-09-17T00:43:31;45.92;;;28.20;;
21519;SDS011;10921;53.614;9.882;2022-09-17T00:46:01;44.42;;;28.17;;
21519;SDS011;10921;53.614;9.882;2022-09-17T00:48:30;47.70;;;29.15;;
21519;SDS011;10921;53.614;9.882;2022-09-17T00:50:56;46.80;;;28.42;;
21519;SDS011;10921;53.614;9.882;2022-09-17T00:53:26;49.78;;;29.27;;
21519;SDS011;10921;53.614;9.882;2022-09-17T00:55:55;46.35;;;28.38;;
21519;SDS011;10921;53.614;9.882;2022-09-17T00:58:27;44.75;;;29.20;;
21519;SDS011;10921;53.614;9.882;2022-09-17T01:00:55;50.38;;;29.10;;
21519;SDS011;10921;53.614;9.882;2022-09-17T01:03:21;46.85;;;29.17;;
21519;SDS011;10921;53.614;9.882;2022-09-17T01:05:50;51.70;;;30.38;;
21519;SDS011;10921;53.614;9.882;2022-09-17T01:08:30;48.25;;;28.15;;
21519;SDS011;10921;53.614;9.882;2022-09-17T01:11:11;47.47;;;29.77;;
21519;SDS011;10921;53.614;9.882;2022-09-17T01:22:58;53.10;;;29.05;;
21519;SDS011;10921;53.614;9.882;2022-09-17T01:31:02;53.92;;;27.38;;
21519;SDS011;10921;53.614;9.882;2022-09-17T01:45:28;45.83;;;25.48;;
21519;SDS011;10921;53.614;9.882;2022-09-17T01:48:03;41.53;;;24.90;;
21519;SDS011;10921;53.614;9.882;2022-09-17T01:50:36;36.97;;;23.88;;
21519;SDS011;10921;53.614;9.882;2022-09-17T01:53:08;40.58;;;23.38;;
21519;SDS011;10921;53.614;9.882;2022-09-17T01:55:37;40.05;;;22.27;;
21519;SDS011;10921;53.614;9.882;2022-09-17T02:00:57;38.53;;;22.35;;
21519;SDS011;10921;53.614;9.882;2022-09-17T02:03:29;39.38;;;22.77;;
21519;SDS011;10921;53.614;9.882;2022-09-17T02:06:10;36.75;;;21.45;;
21519;SDS011;10921;53.614;9.882;2022-09-17T02:08:50;39.83;;;21.40;;
21519;SDS011;10921;53.614;9.882;2022-09-17T02:11:21;37.70;;;21.40;;
21519;SDS011;10921;53.614;9.882;2022-09-17T02:13:51;38.53;;;20.98;;
21519;SDS011;10921;53.614;9.882;2022-09-17T02:16:40;37.63;;;21.33;;
21519;SDS011;10921;53.614;9.882;2022-09-17T02:19:29;43.22;;;21.08;;
21519;SDS011;10921;53.614;9.882;2022-09-17T02:27:17;39.45;;;20.45;;
21519;SDS011;10921;53.614;9.882;2022-09-17T02:29:51;36.97;;;20.08;;
21519;SDS011;10921;53.614;9.882;2022-09-17T02:32:18;36.97;;;19.83;;
21519;SDS011;10921;53.614;9.882;2022-09-17T02:34:44;38.22;;;20.15;;
21519;SDS011;10921;53.614;9.882;2022-09-17T02:37:12;49.40;;;21.00;;
21519;SDS011;10921;53.614;9.882;2022-09-17T02:39:39;39.22;;;21.05;;
21519;SDS011;10921;53.614;9.882;2022-09-17T02:47:22;36.83;;;19.75;;
21519;SDS011;10921;53.614;9.882;2022-09-17T02:50:09;37.05;;;19.88;;
21519;SDS011;10921;53.614;9.882;2022-09-17T02:52:56;33.85;;;19.13;;
21519;SDS011;10921;53.614;9.882;2022-09-17T02:55:33;36.10;;;17.73;;
21519;SDS011;10921;53.614;9.882;2022-09-17T03:00:46;43.33;;;17.33;;
21519;SDS011;10921;53.614;9.882;2022-09-17T03:03:18;33.22;;;16.42;;
21519;SDS011;10921;53.614;9.882;2022-09-17T03:05:51;29.10;;;15.88;;
21519;SDS011;10921;53.614;9.882;2022-09-17T03:08:26;30.48;;;15.57;;
21519;SDS011;10921;53.614;9.882;2022-09-17T03:10:54;33.08;;;15.13;;
21519;SDS011;10921;53.614;9.882;2022-09-17T03:13:21;34.13;;;14.43;;
21519;SDS011;10921;53.614;9.882;2022-09-17T03:15:47;24.67;;;13.27;;
21519;SDS011;10921;53.614;9.882;2022-09-17T03:18:14;30.70;;;13.00;;
21519;SDS011;10921;53.614;9.882;2022-09-17T03:20:41;32.78;;;13.20;;
21519;SDS011;10921;53.614;9.882;2022-09-17T03:23:07;32.22;;;13.18;;
21519;SDS011;10921;53.614;9.882;2022-09-17T03:25:33;29.05;;;12.57;;
21519;SDS011;10921;53.614;9.882;2022-09-17T03:28:00;27.80;;;12.15;;
21519;SDS011;10921;53.614;9.882;2022-09-17T03:30:27;26.15;;;13.18;;
21519;SDS011;10921;53.614;9.882;2022-09-17T03:32:53;31.15;;;12.65;;
21519;SDS011;10921;53.614;9.882;2022-09-17T03:35:20;26.80;;;12.88;;
21519;SDS011;10921;53.614;9.882;2022-09-17T03:37:46;30.08;;;13.65;;
21519;SDS011;10921;53.614;9.882;2022-09-17T03:40:12;30.92;;;12.95;;
21519;SDS011;10921;53.614;9.882;2022-09-17T03:42:39;27.90;;;13.85;;
21519;SDS011;10921;53.614;9.882;2022-09-17T03:45:06;23.77;;;13.10;;
21519;SDS011;10921;53.614;9.882;2022-09-17T03:47:32;22.50;;;12.50;;
21519;SDS011;10921;53.614;9.882;2022-09-17T03:49:59;30.38;;;12.98;;
21519;SDS011;10921;53.614;9.882;2022-09-17T03:52:25;26.38;;;12.63;;
21519;SDS011;10921;53.614;9.882;2022-09-17T03:54:52;25.23;;;13.70;;
21519;SDS011;10921;53.614;9.882;2022-09-17T03:57:18;33.25;;;13.48;;
21519;SDS011;10921;53.614;9.882;2022-09-17T03:59:44;24.52;;;13.05;;
21519;SDS011;10921;53.614;9.882;2022-09-17T04:02:11;24.33;;;12.85;;
21519;SDS011;10921;53.614;9.882;2022-09-17T04:04:37;23.85;;;12.90;;
21519;SDS011;10921;53.614;9.882;2022-09-17T04:07:04;26.98;;;13.93;;
21519;SDS011;10921;53.614;9.882;2022-09-17T04:09:31;22.13;;;13.85;;
21519;SDS011;10921;53.614;9.882;2022-09-17T04:12:00;27.25;;;14.55;;
21519;SDS011;10921;53.614;9.882;2022-09-17T04:14:27;28.90;;;21.17;;
21519;SDS011;10921;53.614;9.882;2022-09-17T04:16:53;36.53;;;25.88;;
21519;SDS011;10921;53.614;9.882;2022-09-17T04:19:19;43.35;;;31.00;;
21519;SDS011;10921;53.614;9.882;2022-09-17T04:21:46;38.65;;;29.80;;
21519;SDS011;10921;53.614;9.882;2022-09-17T04:24:12;43.25;;;30.23;;
21519;SDS011;10921;53.614;9.882;2022-09-17T04:26:39;36.58;;;31.52;;
21519;SDS011;10921;53.614;9.882;2022-09-17T04:29:06;39.65;;;30.17;;
21519;SDS011;10921;53.614;9.882;2022-09-17T04:31:32;37.53;;;30.15;;
21519;SDS011;10921;53.614;9.882;2022-09-17T04:33:59;43.45;;;29.48;;
21519;SDS011;10921;53.614;9.882;2022-09-17T04:36:25;38.30;;;28.92;;
21519;SDS011;10921;53.614;9.882;2022-09-17T04:38:51;35.20;;;30.23;;
21519;SDS011;10921;53.614;9.882;2022-09-17T04:41:18;37.88;;;29.65;;
21519;SDS011;10921;53.614;9.882;2022-09-17T04:43:45;37.40;;;30.10;;
21519;SDS011;10921;53.614;9.882;2022-09-17T04:46:12;43.05;;;30.88;;
21519;SDS011;10921;53.614;9.882;2022-09-17T04:48:39;40.55;;;30.77;;
21519;SDS011;10921;53.614;9.882;2022-09-17T04:51:05;38.65;;;31.02;;
21519;SDS011;10921;53.614;9.882;2022-09-17T04:53:32;44.72;;;31.13;;
21519;SDS011;10921;53.614;9.882;2022-09-17T04:55:58;42.50;;;31.58;;
21519;SDS011;10921;53.614;9.882;2022-09-17T04:58:25;39.95;;;30.83;;
21519;SDS011;10921;53.614;9.882;2022-09-17T05:00:51;38.60;;;31.17;;
21519;SDS011;10921;53.614;9.882;2022-09-17T05:03:18;44.47;;;31.02;;
21519;SDS011;10921;53.614;9.882;2022-09-17T05:05:47;38.30;;;30.03;;
21519;SDS011;10921;53.614;9.882;2022-09-17T05:08:13;35.58;;;29.90;;
21519;SDS011;10921;53.614;9.882;2022-09-17T05:10:40;42.60;;;30.80;;
21519;SDS011;10921;53.614;9.882;2022-09-17T05:13:06;39.35;;;29.88;;
21519;SDS011;10921;53.614;9.882;2022-09-17T05:15:33;41.97;;;31.40;;
21519;SDS011;10921;53.614;9.882;2022-09-17T05:17:59;38.10;;;31.13;;
21519;SDS011;10921;53.614;9.882;2022-09-17T05:20:26;36.33;;;31.13;;
21519;SDS011;10921;53.614;9.882;2022-09-17T05:22:52;41.38;;;30.88;;
21519;SDS011;10921;53.614;9.882;2022-09-17T05:25:19;44.47;;;31.85;;
21519;SDS011;10921;53.614;9.882;2022-09-17T05:27:50;39.95;;;30.35;;
21519;SDS011;10921;53.614;9.882;2022-09-17T05:30:17;40.38;;;31.17;;
21519;SDS011;10921;53.614;9.882;2022-09-17T05:32:44;35.33;;;30.55;;
21519;SDS011;10921;53.614;9.882;2022-09-17T05:35:10;41.90;;;31.73;;
21519;SDS011;10921;53.614;9.882;2022-09-17T05:37:37;43.63;;;31.95;;
21519;SDS011;10921;53.614;9.882;2022-09-17T05:40:04;41.83;;;32.42;;
21519;SDS011;10921;53.614;9.882;2022-09-17T05:42:32;41.78;;;31.08;;
21519;SDS011;10921;53.614;9.882;2022-09-17T05:44:59;49.58;;;32.30;;
21519;SDS011;10921;53.614;9.882;2022-09-17T05:47:25;45.67;;;31.92;;
21519;SDS011;10921;53.614;9.882;2022-09-17T05:49:52;45.05;;;32.83;;
21519;SDS011;10921;53.614;9.882;2022-09-17T05:52:18;42.72;;;31.73;;
21519;SDS011;10921;53.614;9.882;2022-09-17T05:54:45;45.28;;;31.35;;
21519;SDS011;10921;53.614;9.882;2022-09-17T05:57:11;41.88;;;30.88;;
21519;SDS011;10921;53.614;9.882;2022-09-17T05:59:38;39.25;;;30.45;;
21519;SDS011;10921;53.614;9.882;2022-09-17T06:02:04;56.30;;;32.60;;
21519;SDS011;10921;53.614;9.882;2022-09-17T06:04:31;46.55;;;32.25;;
21519;SDS011;10921;53.614;9.882;2022-09-17T06:07:02;44.72;;;31.77;;
21519;SDS011;10921;53.614;9.882;2022-09-17T06:09:33;44.60;;;31.85;;
21519;SDS011;10921;53.614;9.882;2022-09-17T06:12:02;49.55;;;31.83;;
21519;SDS011;10921;53.614;9.882;2022-09-17T06:14:30;49.28;;;30.73;;
21519;SDS011;10921;53.614;9.882;2022-09-17T06:16:56;40.83;;;30.80;;
21519;SDS011;10921;53.614;9.882;2022-09-17T06:19:22;38.60;;;31.45;;
21519;SDS011;10921;53.614;9.882;2022-09-17T06:21:49;41.80;;;31.50;;
21519;SDS011;10921;53.614;9.882;2022-09-17T06:24:15;45.47;;;31.30;;
21519;SDS011;10921;53.614;9.882;2022-09-17T06:26:42;49.22;;;31.67;;
21519;SDS011;10921;53.614;9.882;2022-09-17T06:29:08;40.75;;;30.77;;
21519;SDS011;10921;53.614;9.882;2022-09-17T06:31:35;44.80;;;30.95;;
21519;SDS011;10921;53.614;9.882;2022-09-17T06:34:01;43.30;;;30.77;;
21519;SDS011;10921;53.614;9.882;2022-09-17T06:36:27;39.38;;;31.40;;
21519;SDS011;10921;53.614;9.882;2022-09-17T06:38:54;44.38;;;31.60;;
21519;SDS011;10921;53.614;9.882;2022-09-17T06:41:20;34.45;;;30.42;;
21519;SDS011;10921;53.614;9.882;2022-09-17T06:43:47;40.20;;;30.42;;
21519;SDS011;10921;53.614;9.882;2022-09-17T06:46:13;36.40;;;30.25;;
21519;SDS011;10921;53.614;9.882;2022-09-17T06:48:40;34.17;;;29.98;;
21519;SDS011;10921;53.614;9.882;2022-09-17T06:51:07;34.92;;;29.83;;
21519;SDS011;10921;53.614;9.882;2022-09-17T06:53:36;38.05;;;28.80;;
21519;SDS011;10921;53.614;9.882;2022-09-17T06:56:04;31.60;;;28.27;;
21519;SDS011;10921;53.614;9.882;2022-09-17T06:58:32;31.00;;;27.77;;
21519;SDS011;10921;53.614;9.882;2022-09-17T07:01:02;31.45;;;28.35;;
21519;SDS011;10921;53.614;9.882;2022-09-17T07:03:30;32.85;;;27.70;;
21519;SDS011;10921;53.614;9.882;2022-09-17T07:05:56;30.40;;;27.23;;
21519;SDS011;10921;53.614;9.882;2022-09-17T07:08:23;29.85;;;26.85;;
21519;SDS011;10921;53.614;9.882;2022-09-17T07:10:53;29.05;;;26.42;;
21519;SDS011;10921;53.614;9.882;2022-09-17T07:13:21;30.50;;;26.30;;
21519;SDS011;10921;53.614;9.882;2022-09-17T07:15:53;30.02;;;25.55;;
21519;SDS011;10921;53.614;9.882;2022-09-17T07:18:20;26.48;;;23.70;;
21519;SDS011;10921;53.614;9.882;2022-09-17T07:20:51;24.77;;;22.33;;
21519;SDS011;10921;53.614;9.882;2022-09-17T07:23:26;22.33;;;20.38;;
21519;SDS011;10921;53.614;9.882;2022-09-17T07:25:54;23.23;;;21.15;;
21519;SDS011;10921;53.614;9.882;2022-09-17T07:28:22;23.98;;;20.15;;
21519;SDS011;10921;53.614;9.882;2022-09-17T07:30:49;22.80;;;19.98;;
21519;SDS011;10921;53.614;9.882;2022-09-17T07:33:18;24.30;;;20.58;;
21519;SDS011;10921;53.614;9.882;2022-09-17T07:35:53;22.30;;;19.90;;
21519;SDS011;10921;53.614;9.882;2022-09-17T07:38:21;23.38;;;19.23;;
21519;SDS011;10921;53.614;9.882;2022-09-17T07:40:58;26.48;;;19.63;;
21519;SDS011;10921;53.614;9.882;2022-09-17T07:43:30;23.25;;;18.10;;
21519;SDS011;10921;53.614;9.882;2022-09-17T07:45:59;20.30;;;18.23;;
21519;SDS011;10921;53.614;9.882;2022-09-17T07:48:26;21.70;;;19.55;;
21519;SDS011;10921;53.614;9.882;2022-09-17T07:50:53;20.50;;;18.35;;
21519;SDS011;10921;53.614;9.882;2022-09-17T07:53:21;19.75;;;17.67;;
21519;SDS011;10921;53.614;9.882;2022-09-17T07:55:51;20.50;;;17.48;;
21519;SDS011;10921;53.614;9.882;2022-09-17T07:58:22;19.42;;;16.95;;
21519;SDS011;10921;53.614;9.882;2022-09-17T08:00:58;20.25;;;16.10;;
21519;SDS011;10921;53.614;9.882;2022-09-17T08:03:25;27.77;;;17.48;;
21519;SDS011;10921;53.614;9.882;2022-09-17T08:05:51;22.55;;;16.00;;
21519;SDS011;10921;53.614;9.882;2022-09-17T08:08:18;28.42;;;15.85;;
21519;SDS011;10921;53.614;9.882;2022-09-17T08:10:46;22.23;;;14.93;;
21519;SDS011;10921;53.614;9.882;2022-09-17T08:13:13;25.08;;;15.07;;
21519;SDS011;10921;53.614;9.882;2022-09-17T08:15:39;21.83;;;14.75;;
21519;SDS011;10921;53.614;9.882;2022-09-17T08:18:05;18.48;;;14.18;;
21519;SDS011;10921;53.614;9.882;2022-09-17T08:20:32;25.80;;;14.45;;
21519;SDS011;10921;53.614;9.882;2022-09-17T08:22:59;19.95;;;14.30;;
21519;SDS011;10921;53.614;9.882;2022-09-17T08:25:26;27.20;;;14.45;;
21519;SDS011;10921;53.614;9.882;2022-09-17T08:27:53;27.73;;;14.75;;
21519;SDS011;10921;53.614;9.882;2022-09-17T08:30:21;23.80;;;14.27;;
21519;SDS011;10921;53.614;9.882;2022-09-17T08:32:48;21.38;;;13.85;;
21519;SDS011;10921;53.614;9.882;2022-09-17T08:35:14;21.88;;;14.00;;
21519;SDS011;10921;53.614;9.882;2022-09-17T08:37:41;24.95;;;14.13;;
21519;SDS011;10921;53.614;9.882;2022-09-17T08:40:12;20.25;;;13.20;;
21519;SDS011;10921;53.614;9.882;2022-09-17T08:42:50;19.88;;;13.25;;
21519;SDS011;10921;53.614;9.882;2022-09-17T08:45:21;20.67;;;13.27;;
21519;SDS011;10921;53.614;9.882;2022-09-17T08:47:48;30.27;;;13.70;;
21519;SDS011;10921;53.614;9.882;2022-09-17T08:50:36;14.60;;;12.50;;
21519;SDS011;10921;53.614;9.882;2022-09-17T08:56:06;17.55;;;11.52;;
21519;SDS011;10921;53.614;9.882;2022-09-17T08:58:51;15.57;;;11.20;;
21519;SDS011;10921;53.614;9.882;2022-09-17T09:07:02;15.88;;;10.30;;
21519;SDS011;10921;53.614;9.882;2022-09-17T09:09:36;11.98;;;9.90;;
21519;SDS011;10921;53.614;9.882;2022-09-17T09:12:12;11.30;;;9.57;;
21519;SDS011;10921;53.614;9.882;2022-09-17T09:14:53;10.98;;;10.00;;
21519;SDS011;10921;53.614;9.882;2022-09-17T09:17:27;13.98;;;10.10;;
21519;SDS011;10921;53.614;9.882;2022-09-17T09:19:58;12.10;;;10.15;;
21519;SDS011;10921;53.614;9.882;2022-09-17T09:30:24;10.90;;;9.43;;
21519;SDS011;10921;53.614;9.882;2022-09-17T09:32:59;10.68;;;9.52;;
21519;SDS011;10921;53.614;9.882;2022-09-17T09:35:28;10.27;;;9.40;;
21519;SDS011;10921;53.614;9.882;2022-09-17T09:38:14;10.68;;;9.52;;
21519;SDS011;10921;53.614;9.882;2022-09-17T09:40:56;10.20;;;9.30;;
21519;SDS011;10921;53.614;9.882;2022-09-17T09:49:22;9.88;;;9.18;;
21519;SDS011;10921;53.614;9.882;2022-09-17T09:52:27;10.00;;;9.15;;
21519;SDS011;10921;53.614;9.882;2022-09-17T09:57:53;10.38;;;9.43;;
21519;SDS011;10921;53.614;9.882;2022-09-17T10:00:28;9.40;;;8.60;;
21519;SDS011;10921;53.614;9.882;2022-09-17T10:03:00;9.80;;;8.75;;
21519;SDS011;10921;53.614;9.882;2022-09-17T10:05:35;10.10;;;9.10;;
21519;SDS011;10921;53.614;9.882;2022-09-17T10:08:11;11.00;;;9.50;;
21519;SDS011;10921;53.614;9.882;2022-09-17T10:10:52;10.50;;;9.20;;
21519;SDS011;10921;53.614;9.882;2022-09-17T10:13:20;11.32;;;9.20;;
21519;SDS011;10921;53.614;9.882;2022-09-17T10:15:47;14.05;;;9.02;;
21519;SDS011;10921;53.614;9.882;2022-09-17T10:20:51;10.15;;;8.95;;
21519;SDS011;10921;53.614;9.882;2022-09-17T10:23:20;14.68;;;9.10;;
21519;SDS011;10921;53.614;9.882;2022-09-17T10:25:47;10.63;;;8.80;;
21519;SDS011;10921;53.614;9.882;2022-09-17T10:31:00;12.73;;;8.98;;
21519;SDS011;10921;53.614;9.882;2022-09-17T10:33:34;14.90;;;9.85;;
21519;SDS011;10921;53.614;9.882;2022-09-17T10:36:08;12.13;;;9.70;;
21519;SDS011;10921;53.614;9.882;2022-09-17T10:38:39;10.32;;;8.77;;
21519;SDS011;10921;53.614;9.882;2022-09-17T10:41:08;9.43;;;8.50;;
21519;SDS011;10921;53.614;9.882;2022-09-17T10:43:35;9.65;;;8.73;;
21519;SDS011;10921;53.614;9.882;2022-09-17T10:46:02;10.60;;;8.80;;
21519;SDS011;10921;53.614;9.882;2022-09-17T10:48:35;12.07;;;8.95;;
21519;SDS011;10921;53.614;9.882;2022-09-17T10:51:22;16.60;;;9.55;;
21519;SDS011;10921;53.614;9.882;2022-09-17T10:53:58;10.90;;;9.00;;
21519;SDS011;10921;53.614;9.882;2022-09-17T10:56:34;12.07;;;9.35;;
21519;SDS011;10921;53.614;9.882;2022-09-17T10:59:19;10.50;;;8.80;;
21519;SDS011;10921;53.614;9.882;2022-09-17T11:02:08;10.88;;;9.00;;
21519;SDS011;10921;53.614;9.882;2022-09-17T11:04:47;12.70;;;9.60;;
21519;SDS011;10921;53.614;9.882;2022-09-17T11:10:08;11.25;;;8.88;;
21519;SDS011;10921;53.614;9.882;2022-09-17T11:16:05;15.10;;;8.70;;
21519;SDS011;10921;53.614;9.882;2022-09-17T11:18:57;11.90;;;9.27;;
21519;SDS011;10921;53.614;9.882;2022-09-17T11:21:49;12.40;;;9.00;;
21519;SDS011;10921;53.614;9.882;2022-09-17T11:27:17;12.10;;;9.20;;
21519;SDS011;10921;53.614;9.882;2022-09-17T11:35:40;12.68;;;8.70;;
21519;SDS011;10921;53.614;9.882;2022-09-17T11:38:20;9.50;;;8.60;;
21519;SDS011;10921;53.614;9.882;2022-09-17T11:41:05;12.45;;;8.85;;
21519;SDS011;10921;53.614;9.882;2022-09-17T11:43:43;13.73;;;9.30;;
21519;SDS011;10921;53.614;9.882;2022-09-17T11:46:20;15.55;;;9.45;;
21519;SDS011;10921;53.614;9.882;2022-09-17T11:48:52;14.73;;;9.20;;
21519;SDS011;10921;53.614;9.882;2022-09-17T11:51:48;15.05;;;9.10;;
21519;SDS011;10921;53.614;9.882;2022-09-17T11:57:04;12.73;;;9.13;;
21519;SDS011;10921;53.614;9.882;2022-09-17T12:07:14;13.15;;;8.90;;
21519;SDS011;10921;53.614;9.882;2022-09-17T12:10:16;14.77;;;9.55;;
21519;SDS011;10921;53.614;9.882;2022-09-17T12:12:46;12.95;;;9.18;;
21519;SDS011;10921;53.614;9.882;2022-09-17T12:15:22;14.55;;;9.32;;
21519;SDS011;10921;53.614;9.882;2022-09-17T12:20:57;13.68;;;9.70;;
21519;SDS011;10921;53.614;9.882;2022-09-17T12:24:00;17.30;;;10.10;;
21519;SDS011;10921;53.614;9.882;2022-09-17T12:40:59;16.17;;;9.45;;
21519;SDS011;10921;53.614;9.882;2022-09-17T12:46:16;12.85;;;8.73;;
21519;SDS011;10921;53.614;9.882;2022-09-17T12:48:57;19.40;;;9.98;;
21519;SDS011;10921;53.614;9.882;2022-09-17T12:59:28;17.73;;;10.55;;
21519;SDS011;10921;53.614;9.882;2022-09-17T13:10:39;35.70;;;29.88;;
21519;SDS011;10921;53.614;9.882;2022-09-17T13:13:25;33.25;;;29.70;;
21519;SDS011;10921;53.614;9.882;2022-09-17T13:24:21;30.30;;;27.30;;
21519;SDS011;10921;53.614;9.882;2022-09-17T13:26:54;29.70;;;26.73;;
21519;SDS011;10921;53.614;9.882;2022-09-17T13:32:08;27.77;;;24.85;;
21519;SDS011;10921;53.614;9.882;2022-09-17T13:34:34;25.25;;;22.98;;
21519;SDS011;10921;53.614;9.882;2022-09-17T13:37:04;23.27;;;21.10;;
21519;SDS011;10921;53.614;9.882;2022-09-17T13:39:45;22.98;;;20.55;;
21519;SDS011;10921;53.614;9.882;2022-09-17T13:45:11;19.58;;;17.65;;
21519;SDS011;10921;53.614;9.882;2022-09-17T13:50:32;24.33;;;16.50;;
21519;SDS011;10921;53.614;9.882;2022-09-17T13:53:44;17.88;;;16.27;;
21519;SDS011;10921;53.614;9.882;2022-09-17T13:55:55;16.60;;;14.85;;
21519;SDS011;10921;53.614;9.882;2022-09-17T13:58:29;16.27;;;13.00;;
21519;SDS011;10921;53.614;9.882;2022-09-17T14:05:56;11.68;;;10.77;;
21519;SDS011;10921;53.614;9.882;2022-09-17T14:08:50;10.45;;;9.63;;
21519;SDS011;10921;53.614;9.882;2022-09-17T14:21:42;10.73;;;9.65;;
21519;SDS011;10921;53.614;9.882;2022-09-17T14:32:45;9.63;;;8.70;;
21519;SDS011;10921;53.614;9.882;2022-09-17T14:41:34;24.75;;;22.55;;
21519;SDS011;10921;53.614;9.882;2022-09-17T14:44:06;27.48;;;25.20;;
21519;SDS011;10921;53.614;9.882;2022-09-17T14:46:41;28.15;;;25.50;;
21519;SDS011;10921;53.614;9.882;2022-09-17T14:51:54;29.65;;;26.60;;
21519;SDS011;10921;53.614;9.882;2022-09-17T14:54:23;28.40;;;25.85;;
21519;SDS011;10921;53.614;9.882;2022-09-17T14:57:16;28.45;;;25.80;;
21519;SDS011;10921;53.614;9.882;2022-09-17T14:59:52;29.48;;;26.48;;
21519;SDS011;10921;53.614;9.882;2022-09-17T15:04:56;29.48;;;26.50;;
21519;SDS011;10921;53.614;9.882;2022-09-17T15:07:24;28.58;;;26.13;;
21519;SDS011;10921;53.614;9.882;2022-09-17T15:09:51;29.63;;;26.48;;
21519;SDS011;10921;53.614;9.882;2022-09-17T15:12:24;30.05;;;27.02;;
21519;SDS011;10921;53.614;9.882;2022-09-17T15:14:55;29.23;;;26.25;;
21519;SDS011;10921;53.614;9.882;2022-09-17T15:17:23;28.30;;;25.48;;
21519;SDS011;10921;53.614;9.882;2022-09-17T15:19:50;26.52;;;24.20;;
21519;SDS011;10921;53.614;9.882;2022-09-17T15:24:55;25.50;;;23.17;;
21519;SDS011;10921;53.614;9.882;2022-09-17T15:27:36;26.42;;;23.88;;
21519;SDS011;10921;53.614;9.882;2022-09-17T15:30:12;24.88;;;22.65;;
21519;SDS011;10921;53.614;9.882;2022-09-17T15:32:55;24.80;;;22.70;;
21519;SDS011;10921;53.614;9.882;2022-09-17T15:37:56;24.70;;;22.15;;
21519;SDS011;10921;53.614;9.882;2022-09-17T15:40:43;23.35;;;21.30;;
21519;SDS011;10921;53.614;9.882;2022-09-17T15:43:19;23.65;;;21.45;;
21519;SDS011;10921;53.614;9.882;2022-09-17T15:45:46;22.67;;;20.88;;
21519;SDS011;10921;53.614;9.882;2022-09-17T15:48:33;24.05;;;21.65;;
21519;SDS011;10921;53.614;9.882;2022-09-17T15:51:03;22.60;;;20.70;;
21519;SDS011;10921;53.614;9.882;2022-09-17T15:53:32;23.15;;;21.25;;
21519;SDS011;10921;53.614;9.882;2022-09-17T15:56:34;22.70;;;20.83;;
21519;SDS011;10921;53.614;9.882;2022-09-17T16:08:54;22.30;;;20.40;;
21519;SDS011;10921;53.614;9.882;2022-09-17T16:11:23;22.08;;;20.38;;
21519;SDS011;10921;53.614;9.882;2022-09-17T16:13:53;21.23;;;19.63;;
21519;SDS011;10921;53.614;9.882;2022-09-17T16:16:22;20.65;;;19.05;;
21519;SDS011;10921;53.614;9.882;2022-09-17T16:18:50;19.90;;;18.33;;
21519;SDS011;10921;53.614;9.882;2022-09-17T16:21:17;18.88;;;17.25;;
21519;SDS011;10921;53.614;9.882;2022-09-17T16:23:45;18.35;;;16.75;;
21519;SDS011;10921;53.614;9.882;2022-09-17T16:26:15;18.40;;;16.70;;
21519;SDS011;10921;53.614;9.882;2022-09-17T16:28:45;17.92;;;16.40;;
21519;SDS011;10921;53.614;9.882;2022-09-17T16:31:15;17.08;;;15.68;;
21519;SDS011;10921;53.614;9.882;2022-09-17T16:33:42;17.42;;;15.85;;
21519;SDS011;10921;53.614;9.882;2022-09-17T16:36:08;17.75;;;15.93;;
21519;SDS011;10921;53.614;9.882;2022-09-17T16:38:35;16.20;;;15.10;;
21519;SDS011;10921;53.614;9.882;2022-09-17T16:41:05;16.30;;;14.95;;
21519;SDS011;10921;53.614;9.882;2022-09-17T16:43:31;15.90;;;14.45;;
21519;SDS011;10921;53.614;9.882;2022-09-17T16:46:00;16.83;;;15.38;;
21519;SDS011;10921;53.614;9.882;2022-09-17T16:48:28;16.55;;;15.15;;
21519;SDS011;10921;53.614;9.882;2022-09-17T16:50:54;16.88;;;15.40;;
21519;SDS011;10921;53.614;9.882;2022-09-17T16:53:21;17.60;;;15.80;;
21519;SDS011;10921;53.614;9.882;2022-09-17T16:55:47;16.25;;;14.63;;
21519;SDS011;10921;53.614;9.882;2022-09-17T16:58:14;16.65;;;14.93;;
21519;SDS011;10921;53.614;9.882;2022-09-17T17:00:44;16.40;;;14.90;;
21519;SDS011;10921;53.614;9.882;2022-09-17T17:03:11;15.77;;;14.48;;
21519;SDS011;10921;53.614;9.882;2022-09-17T17:05:39;16.13;;;14.40;;
21519;SDS011;10921;53.614;9.882;2022-09-17T17:08:06;14.90;;;13.90;;
21519;SDS011;10921;53.614;9.882;2022-09-17T17:10:34;15.15;;;13.90;;
21519;SDS011;10921;53.614;9.882;2022-09-17T17:13:03;14.40;;;13.13;;
21519;SDS011;10921;53.614;9.882;2022-09-17T17:15:30;14.50;;;13.30;;
21519;SDS011;10921;53.614;9.882;2022-09-17T17:17:56;15.05;;;13.95;;
21519;SDS011;10921;53.614;9.882;2022-09-17T17:20:23;15.25;;;13.85;;
21519;SDS011;10921;53.614;9.882;2022-09-17T17:22:50;14.30;;;13.10;;
21519;SDS011;10921;53.614;9.882;2022-09-17T17:25:17;14.95;;;13.50;;
21519;SDS011;10921;53.614;9.882;2022-09-17T17:27:43;13.70;;;12.70;;
21519;SDS011;10921;53.614;9.882;2022-09-17T17:30:10;15.48;;;13.98;;
21519;SDS011;10921;53.614;9.882;2022-09-17T17:32:42;14.85;;;13.63;;
21519;SDS011;10921;53.614;9.882;2022-09-17T17:35:09;14.35;;;13.05;;
21519;SDS011;10921;53.614;9.882;2022-09-17T17:37:37;13.85;;;12.55;;
21519;SDS011;10921;53.614;9.882;2022-09-17T17:40:03;12.82;;;11.82;;
21519;SDS011;10921;53.614;9.882;2022-09-17T17:42:37;13.90;;;12.15;;
21519;SDS011;10921;53.614;9.882;2022-09-17T17:45:05;16.77;;;14.27;;
21519;SDS011;10921;53.614;9.882;2022-09-17T17:47:32;22.10;;;17.90;;
21519;SDS011;10921;53.614;9.882;2022-09-17T17:49:59;20.30;;;16.83;;
21519;SDS011;10921;53.614;9.882;2022-09-17T17:52:26;24.20;;;16.10;;
21519;SDS011;10921;53.614;9.882;2022-09-17T17:54:53;17.73;;;14.88;;
21519;SDS011;10921;53.614;9.882;2022-09-17T17:57:19;23.52;;;16.55;;
21519;SDS011;10921;53.614;9.882;2022-09-17T17:59:46;61.00;;;33.33;;
21519;SDS011;10921;53.614;9.882;2022-09-17T18:02:12;54.03;;;31.52;;
21519;SDS011;10921;53.614;9.882;2022-09-17T18:04:39;29.45;;;19.42;;
21519;SDS011;10921;53.614;9.882;2022-09-17T18:07:05;24.00;;;15.52;;